Time;durP1;ratioP1;P1;durP2;ratioP2;P2;SDS_P1;SDS_P2;PMS_P1;PMS_P2;Temp;Humidity;BMP_temperature;BMP_pressure;BME280_temperature;BME280_humidity;BME280_pressure;Samples;Min_cycle;Max_cycle;Signal;HPM_P1;HPM_P2
2021/06/07 00:00:20;;;;;;;22.80;18.92;;;;;;;15.13;100.00;96614.91;4990568;28;20033;-80
2021/06/07 00:02:46;;;;;;;24.15;17.90;;;;;;;15.14;100.00;96621.81;5020102;28;20090;-80
2021/06/07 00:05:12;;;;;;;21.08;17.77;;;;;;;15.14;100.00;96624.47;5001827;28;20307;-81
2021/06/07 00:07:38;;;;;;;21.65;16.67;;;;;;;15.14;100.00;96619.19;5011966;28;20038;-79
2021/06/07 00:10:08;;;;;;;21.00;16.70;;;;;;;15.13;100.00;96618.34;5019858;28;20033;-80
2021/06/07 00:12:34;;;;;;;24.50;18.80;;;;;;;15.17;100.00;96614.34;5000279;28;20060;-80
2021/06/07 00:14:59;;;;;;;21.73;18.52;;;;;;;15.15;100.00;96615.53;4996661;28;20951;-76
2021/06/07 00:17:25;;;;;;;26.17;19.15;;;;;;;15.16;100.00;96611.88;4991833;28;20088;-77
2021/06/07 00:19:51;;;;;;;24.63;18.85;;;;;;;15.05;100.00;96616.56;5006934;28;20393;-76
2021/06/07 00:22:17;;;;;;;26.92;20.25;;;;;;;15.08;100.00;96615.41;4987762;28;20037;-76
2021/06/07 00:24:42;;;;;;;23.75;19.75;;;;;;;15.10;100.00;96621.38;4993274;28;20022;-77
2021/06/07 00:27:08;;;;;;;24.27;19.77;;;;;;;15.12;100.00;96616.69;4998121;28;20597;-76
2021/06/07 00:29:35;;;;;;;22.48;17.75;;;;;;;15.14;100.00;96620.00;5019314;28;20017;-77
2021/06/07 00:32:01;;;;;;;26.05;18.58;;;;;;;15.09;100.00;96612.59;5007555;28;20264;-76
2021/06/07 00:34:27;;;;;;;22.55;17.77;;;;;;;15.11;100.00;96612.41;5022481;28;20025;-77
2021/06/07 00:36:53;;;;;;;22.45;18.25;;;;;;;15.11;100.00;96609.75;4992941;28;20407;-77
2021/06/07 00:39:18;;;;;;;24.63;17.98;;;;;;;15.06;100.00;96607.66;5010970;28;20030;-76
2021/06/07 00:41:47;;;;;;;22.75;17.92;;;;;;;15.13;100.00;96607.75;5020245;28;20033;-77
2021/06/07 00:44:16;;;;;;;22.67;18.00;;;;;;;15.13;100.00;96591.88;4994311;28;20083;-76
2021/06/07 00:46:42;;;;;;;23.35;18.45;;;;;;;15.11;100.00;96604.47;5017820;28;20033;-77
2021/06/07 00:49:09;;;;;;;21.23;17.75;;;;;;;15.05;100.00;96605.16;5005823;28;20026;-77
2021/06/07 00:51:35;;;;;;;21.70;17.77;;;;;;;15.05;100.00;96605.97;4995883;28;20073;-77
2021/06/07 00:54:02;;;;;;;24.55;18.63;;;;;;;15.06;100.00;96606.84;4995807;28;20148;-76
2021/06/07 00:56:27;;;;;;;22.10;17.45;;;;;;;15.07;100.00;96609.28;5005764;28;20041;-76
2021/06/07 00:58:53;;;;;;;24.48;18.85;;;;;;;15.08;100.00;96607.47;5000842;28;20380;-76
2021/06/07 01:01:22;;;;;;;23.23;17.35;;;;;;;15.02;100.00;96602.88;5014291;28;20057;-77
2021/06/07 01:03:52;;;;;;;21.45;16.90;;;;;;;15.07;100.00;96606.63;4998517;28;20052;-76
2021/06/07 01:06:19;;;;;;;20.27;16.55;;;;;;;15.06;100.00;96598.88;4998741;28;20399;-77
2021/06/07 01:08:44;;;;;;;20.95;17.15;;;;;;;15.04;100.00;96598.22;5006157;28;20029;-77
2021/06/07 01:11:11;;;;;;;22.20;17.80;;;;;;;15.07;100.00;96589.94;5007938;28;20085;-77
2021/06/07 01:13:36;;;;;;;24.30;19.05;;;;;;;15.01;100.00;96595.94;5003461;28;20444;-77
2021/06/07 01:16:03;;;;;;;20.27;16.80;;;;;;;14.99;100.00;96589.97;4994053;28;20038;-77
2021/06/07 01:18:30;;;;;;;25.92;18.60;;;;;;;15.00;100.00;96594.28;5015429;28;20040;-75
2021/06/07 01:21:00;;;;;;;18.77;16.20;;;;;;;15.04;100.00;96593.75;5015551;28;20030;-75
2021/06/07 01:23:26;;;;;;;27.85;18.52;;;;;;;15.04;100.00;96590.28;5004227;28;20099;-76
2021/06/07 01:25:56;;;;;;;23.08;17.17;;;;;;;15.00;100.00;96594.28;5010816;28;20041;-77
2021/06/07 01:28:22;;;;;;;22.92;18.00;;;;;;;15.01;100.00;96586.16;5009420;28;20113;-75
2021/06/07 01:30:50;;;;;;;21.88;17.92;;;;;;;15.12;100.00;96579.59;4995112;28;20022;-75
2021/06/07 01:33:19;;;;;;;20.13;16.20;;;;;;;14.98;100.00;96575.09;5016052;28;20033;-77
2021/06/07 01:35:45;;;;;;;22.90;17.30;;;;;;;15.06;100.00;96577.69;5013557;28;20029;-77
2021/06/07 01:38:11;;;;;;;38.08;17.83;;;;;;;14.94;100.00;96576.47;5008680;28;20084;-77
2021/06/07 01:40:43;;;;;;;19.55;16.05;;;;;;;14.96;100.00;96579.78;4999793;28;20029;-77
2021/06/07 01:43:09;;;;;;;27.30;17.52;;;;;;;14.98;100.00;96586.50;5006715;28;20040;-77
2021/06/07 01:45:37;;;;;;;34.28;16.60;;;;;;;14.90;100.00;96583.13;5001358;28;20030;-76
2021/06/07 01:48:06;;;;;;;20.73;15.65;;;;;;;14.93;100.00;96591.53;5006124;28;20120;-77
2021/06/07 01:50:34;;;;;;;96.35;19.38;;;;;;;14.92;100.00;96583.75;4996841;28;20033;-75
2021/06/07 01:53:00;;;;;;;82.85;19.85;;;;;;;14.94;100.00;96585.22;4982546;28;20041;-76
2021/06/07 01:55:37;;;;;;;29.55;17.90;;;;;;;14.95;100.00;96578.09;5002581;28;20495;-77
2021/06/07 01:58:06;;;;;;;21.92;17.00;;;;;;;14.95;100.00;96580.75;5005526;28;20053;-77
2021/06/07 02:00:51;;;;;;;24.48;16.73;;;;;;;14.95;100.00;96583.41;5001191;28;20027;-77
2021/06/07 02:03:19;;;;;;;62.58;18.17;;;;;;;14.95;100.00;96578.09;4992434;28;20044;-77
2021/06/07 02:05:48;;;;;;;27.33;16.88;;;;;;;14.91;100.00;96579.47;5012787;28;20033;-77
2021/06/07 02:08:15;;;;;;;53.85;16.77;;;;;;;14.91;100.00;96580.28;4990614;28;20507;-77
2021/06/07 02:10:44;;;;;;;42.28;17.30;;;;;;;14.91;100.00;96579.47;5007540;28;20037;-77
2021/06/07 02:13:12;;;;;;;26.67;16.98;;;;;;;14.92;100.00;96575.81;5000200;28;20063;-77
2021/06/07 02:15:38;;;;;;;49.85;16.35;;;;;;;14.94;100.00;96584.41;5005421;28;20037;-77
2021/06/07 02:18:07;;;;;;;26.35;15.85;;;;;;;14.93;100.00;96585.41;4995185;28;20114;-77
2021/06/07 02:20:34;;;;;;;25.80;16.17;;;;;;;14.90;100.00;96575.19;5012808;28;20554;-77
2021/06/07 02:23:00;;;;;;;24.67;15.93;;;;;;;14.92;100.00;96576.63;4991428;28;20519;-76
2021/06/07 02:25:26;;;;;;;63.55;17.00;;;;;;;14.92;100.00;96573.16;4972697;28;20388;-76
2021/06/07 02:27:53;;;;;;;18.42;15.10;;;;;;;14.93;100.00;96565.06;4995731;28;20071;-77
2021/06/07 02:30:22;;;;;;;30.17;16.13;;;;;;;14.90;100.00;96578.66;5041694;28;20025;-77
2021/06/07 02:32:49;;;;;;;32.17;16.25;;;;;;;14.94;100.00;96576.47;5014600;28;20274;-77
2021/06/07 02:35:17;;;;;;;18.40;15.07;;;;;;;14.97;100.00;96576.13;4998326;28;20460;-76
2021/06/07 02:37:44;;;;;;;18.58;14.75;;;;;;;14.98;100.00;96583.03;4999770;28;20040;-77
2021/06/07 02:40:14;;;;;;;24.05;16.15;;;;;;;14.95;100.00;96568.31;4997139;28;20033;-77
2021/06/07 02:42:41;;;;;;;22.73;15.88;;;;;;;14.97;100.00;96573.47;5009799;28;20044;-77
2021/06/07 02:45:10;;;;;;;50.40;18.67;;;;;;;14.93;100.00;96575.66;4996464;28;20027;-77
2021/06/07 02:47:37;;;;;;;53.08;17.25;;;;;;;14.92;100.00;96573.16;5009289;28;20034;-77
2021/06/07 02:50:08;;;;;;;30.55;17.42;;;;;;;14.94;100.00;96585.22;5001144;28;20026;-77
2021/06/07 02:52:35;;;;;;;94.05;18.35;;;;;;;14.95;100.00;96578.91;4994901;28;20036;-75
2021/06/07 02:55:01;;;;;;;22.00;15.82;;;;;;;14.99;100.00;96587.34;5001963;28;20117;-76
2021/06/07 02:57:27;;;;;;;37.50;17.02;;;;;;;15.00;100.00;96575.75;4998313;28;20037;-76
2021/06/07 02:59:52;;;;;;;31.73;18.10;;;;;;;14.99;100.00;96577.59;5001301;28;20083;-77
2021/06/07 03:02:18;;;;;;;58.08;18.58;;;;;;;14.92;100.00;96583.75;5006280;28;20034;-77
2021/06/07 03:04:44;;;;;;;58.17;18.08;;;;;;;14.93;100.00;96583.59;5014002;28;20406;-76
2021/06/07 03:07:10;;;;;;;37.15;17.33;;;;;;;14.95;100.00;96580.75;5007661;28;20041;-76
2021/06/07 03:09:35;;;;;;;42.20;18.00;;;;;;;14.96;100.00;96585.06;5021913;28;20179;-75
2021/06/07 03:12:03;;;;;;;26.52;16.80;;;;;;;14.95;100.00;96588.69;5021874;28;20077;-77
2021/06/07 03:14:29;;;;;;;52.00;17.25;;;;;;;14.95;100.00;96589.50;5012772;28;20037;-77
2021/06/07 03:16:55;;;;;;;21.85;15.77;;;;;;;14.99;100.00;96588.19;4999411;28;20532;-77
2021/06/07 03:19:20;;;;;;;24.15;17.58;;;;;;;14.99;100.00;96589.97;5023980;28;20117;-76
2021/06/07 03:21:46;;;;;;;38.20;17.67;;;;;;;14.98;100.00;96588.34;5004585;28;20061;-76
2021/06/07 03:24:12;;;;;;;24.70;16.35;;;;;;;14.96;100.00;96585.06;4990786;28;20113;-77
2021/06/07 03:26:37;;;;;;;20.05;17.10;;;;;;;14.99;100.00;96596.13;5015084;28;20045;-77
2021/06/07 03:29:04;;;;;;;18.83;16.17;;;;;;;14.99;100.00;96589.97;5004297;28;20033;-77
2021/06/07 03:31:29;;;;;;;41.05;17.75;;;;;;;14.92;100.00;96581.09;5007440;28;20034;-77
2021/06/07 03:33:55;;;;;;;21.52;15.93;;;;;;;14.96;100.00;96585.06;4994239;28;20025;-76
2021/06/07 03:36:22;;;;;;;28.15;16.52;;;;;;;14.99;100.00;96582.03;5001671;28;20037;-77
2021/06/07 03:38:48;;;;;;;226.18;24.50;;;;;;;14.94;100.00;96584.41;4982713;28;20022;-77
2021/06/07 03:41:13;;;;;;;40.13;16.33;;;;;;;14.93;100.00;96585.41;5003008;28;20049;-77
2021/06/07 03:43:39;;;;;;;38.95;15.13;;;;;;;15.00;100.00;96583.69;5006973;28;20105;-77
2021/06/07 03:46:06;;;;;;;46.95;15.45;;;;;;;14.97;100.00;96584.06;5017415;28;20531;-77
2021/06/07 03:48:32;;;;;;;34.92;15.63;;;;;;;14.97;100.00;96582.22;4996394;28;20025;-77
2021/06/07 03:50:59;;;;;;;20.58;14.02;;;;;;;15.02;100.00;96582.53;5005289;28;20049;-76
2021/06/07 03:53:25;;;;;;;19.25;14.93;;;;;;;15.01;100.00;96577.41;4991023;28;20480;-77
2021/06/07 03:55:51;;;;;;;19.48;14.95;;;;;;;15.00;100.00;96575.75;4999245;28;20033;-76
2021/06/07 03:58:17;;;;;;;23.63;14.77;;;;;;;15.03;100.00;96580.69;4996263;28;20030;-77
2021/06/07 04:00:42;;;;;;;25.17;15.57;;;;;;;15.02;100.00;96576.38;5015513;28;20034;-77
2021/06/07 04:03:11;;;;;;;27.63;15.40;;;;;;;15.08;100.00;96579.13;4991776;28;20114;-77
2021/06/07 04:05:38;;;;;;;28.45;15.00;;;;;;;15.09;100.00;96574.69;5000615;28;20026;-77
2021/06/07 04:08:06;;;;;;;33.05;15.85;;;;;;;15.05;100.00;96563.59;4997283;28;20125;-77
2021/06/07 04:10:32;;;;;;;20.88;14.82;;;;;;;15.08;100.00;96570.38;4998077;28;20033;-76
2021/06/07 04:12:58;;;;;;;19.33;15.55;;;;;;;15.04;100.00;96575.22;4995304;28;20053;-77
2021/06/07 04:15:27;;;;;;;26.08;16.13;;;;;;;15.12;100.00;96573.50;5015284;28;20038;-76
2021/06/07 04:17:54;;;;;;;18.45;16.33;;;;;;;15.08;100.00;96575.69;4988673;28;20034;-77
2021/06/07 04:20:24;;;;;;;18.75;15.70;;;;;;;15.13;100.00;96573.31;4991157;28;20031;-76
2021/06/07 04:22:50;;;;;;;108.45;20.17;;;;;;;15.07;100.00;96579.34;5012893;28;20061;-74
2021/06/07 04:25:17;;;;;;;27.13;16.50;;;;;;;15.17;100.00;96581.75;5005574;28;20427;-77
2021/06/07 04:27:44;;;;;;;24.65;17.42;;;;;;;15.18;100.00;96583.38;5021842;28;20072;-76
2021/06/07 04:30:16;;;;;;;19.35;17.10;;;;;;;15.15;100.00;96579.25;5018842;28;20390;-76
2021/06/07 04:32:43;;;;;;;116.30;19.90;;;;;;;15.11;100.00;96577.16;5002535;28;20037;-76
2021/06/07 04:35:11;;;;;;;19.17;16.15;;;;;;;15.17;100.00;96576.44;5013770;28;20069;-76
2021/06/07 04:37:42;;;;;;;35.90;21.90;;;;;;;15.14;100.00;96577.63;5038812;28;20052;-76
2021/06/07 04:40:11;;;;;;;28.60;21.33;;;;;;;15.19;100.00;96583.22;5008624;28;20064;-77
2021/06/07 04:42:39;;;;;;;92.60;21.25;;;;;;;15.20;100.00;96576.91;5009833;28;20108;-76
2021/06/07 04:45:06;;;;;;;20.88;16.33;;;;;;;15.24;100.00;96580.00;4996571;28;20029;-76
2021/06/07 04:47:32;;;;;;;29.05;16.00;;;;;;;15.24;100.00;96580.81;5009673;28;20372;-76
2021/06/07 04:49:58;;;;;;;23.13;15.05;;;;;;;15.28;100.00;96586.59;5012256;28;20080;-77
2021/06/07 04:52:23;;;;;;;24.42;16.33;;;;;;;15.26;100.00;96573.53;5015178;28;20129;-76
2021/06/07 04:54:49;;;;;;;20.88;16.17;;;;;;;15.27;100.00;96580.47;4994824;28;20033;-75
2021/06/07 04:57:15;;;;;;;23.35;16.33;;;;;;;15.26;100.00;96580.66;5009686;28;20030;-76
2021/06/07 04:59:41;;;;;;;19.27;15.85;;;;;;;15.31;100.00;96579.09;5008068;28;20041;-77
2021/06/07 05:02:07;;;;;;;23.50;18.52;;;;;;;15.35;100.00;96581.41;4992018;28;20037;-76
2021/06/07 05:04:33;;;;;;;57.20;18.15;;;;;;;15.25;100.00;96579.00;5014037;28;20076;-77
2021/06/07 05:06:59;;;;;;;20.55;17.20;;;;;;;15.27;100.00;96580.47;5013775;28;20064;-77
2021/06/07 05:09:24;;;;;;;20.77;17.08;;;;;;;15.32;100.00;96587.88;4986228;28;20041;-75
2021/06/07 05:11:50;;;;;;;20.70;17.23;;;;;;;15.35;100.00;96584.03;5010002;28;20030;-76
2021/06/07 05:14:16;;;;;;;19.35;16.90;;;;;;;15.41;100.00;96583.31;4984687;28;20033;-76
2021/06/07 05:16:41;;;;;;;21.35;18.33;;;;;;;15.39;100.00;96588.81;5017442;28;20402;-75
2021/06/07 05:19:07;;;;;;;21.73;17.52;;;;;;;15.31;100.00;96591.53;4996118;28;20574;-76
2021/06/07 05:21:34;;;;;;;29.13;19.73;;;;;;;15.33;100.00;96593.00;5018822;28;20027;-76
2021/06/07 05:23:59;;;;;;;30.23;23.05;;;;;;;15.36;100.00;96588.34;4991677;28;20310;-76
2021/06/07 05:26:25;;;;;;;29.85;23.58;;;;;;;15.40;100.00;96584.34;4982930;28;20118;-76
2021/06/07 05:28:51;;;;;;;27.33;21.42;;;;;;;15.39;100.00;96586.19;5018095;28;20036;-76
2021/06/07 05:31:16;;;;;;;25.67;21.73;;;;;;;15.48;100.00;96594.84;5007115;28;20110;-75
2021/06/07 05:33:42;;;;;;;30.08;25.83;;;;;;;15.48;100.00;96586.91;5013523;28;20053;-76
2021/06/07 05:36:08;;;;;;;31.17;21.45;;;;;;;15.45;100.00;96593.38;5017943;28;20030;-76
2021/06/07 05:38:34;;;;;;;22.00;17.65;;;;;;;15.47;100.00;96594.03;5014046;28;20092;-76
2021/06/07 05:41:00;;;;;;;27.73;16.83;;;;;;;15.58;100.00;96592.75;5014264;28;20545;-75
2021/06/07 05:43:32;;;;;;;22.92;17.50;;;;;;;15.56;100.00;96600.91;5009114;28;20036;-76
2021/06/07 05:46:22;;;;;;;23.38;16.58;;;;;;;15.68;100.00;96601.28;5016258;28;20049;-76
2021/06/07 05:48:48;;;;;;;36.80;17.02;;;;;;;15.70;100.00;96599.28;5013845;28;20038;-76
2021/06/07 05:51:14;;;;;;;31.38;17.23;;;;;;;15.69;100.00;96602.13;4997632;28;20029;-76
2021/06/07 05:53:39;;;;;;;20.40;16.52;;;;;;;15.76;100.00;96610.97;4986111;28;20124;-75
2021/06/07 05:56:05;;;;;;;21.15;17.02;;;;;;;15.71;100.00;96610.72;4993931;28;20034;-76
2021/06/07 05:58:31;;;;;;;20.05;17.02;;;;;;;15.77;100.00;96607.34;5003462;28;20034;-76
2021/06/07 06:00:56;;;;;;;18.38;15.75;;;;;;;15.91;100.00;96605.69;5012008;28;20395;-76
2021/06/07 06:03:22;;;;;;;20.02;16.05;;;;;;;15.90;100.00;96609.38;4991458;28;20038;-76
2021/06/07 06:05:48;;;;;;;19.48;16.27;;;;;;;15.93;100.00;96595.75;5005628;28;20063;-76
2021/06/07 06:08:14;;;;;;;20.23;17.35;;;;;;;15.94;100.00;96606.16;4971943;28;20049;-75
2021/06/07 06:10:40;;;;;;;20.33;17.05;;;;;;;16.02;100.00;96602.56;5008502;28;20052;-76
2021/06/07 06:13:06;;;;;;;19.80;17.58;;;;;;;16.03;100.00;96613.00;5006237;28;20462;-76
2021/06/07 06:15:32;;;;;;;23.50;19.10;;;;;;;16.06;100.00;96606.50;5011548;28;20033;-76
2021/06/07 06:17:58;;;;;;;22.15;19.75;;;;;;;16.12;100.00;96603.09;5012356;28;20029;-75
2021/06/07 06:20:28;;;;;;;23.92;19.73;;;;;;;16.23;100.00;96610.63;5017294;28;20671;-76
2021/06/07 06:22:54;;;;;;;23.27;19.50;;;;;;;16.33;100.00;96609.47;4997059;28;20127;-74
2021/06/07 06:25:20;;;;;;;20.98;18.52;;;;;;;16.47;100.00;96608.66;5008950;28;20640;-76
2021/06/07 06:27:46;;;;;;;22.13;17.55;;;;;;;16.59;100.00;96615.09;4992791;28;20036;-77
2021/06/07 06:30:16;;;;;;;24.35;21.08;;;;;;;16.59;100.00;96620.41;5001971;28;20005;-76
2021/06/07 06:32:44;;;;;;;22.50;19.98;;;;;;;16.63;100.00;96613.72;5005348;28;20032;-76
2021/06/07 06:35:11;;;;;;;23.60;19.70;;;;;;;16.71;100.00;96613.59;5005439;28;20065;-76
2021/06/07 06:37:38;;;;;;;25.35;21.73;;;;;;;16.68;100.00;96613.97;5041808;28;20087;-75
2021/06/07 06:40:05;;;;;;;23.80;21.27;;;;;;;16.71;100.00;96613.59;5019272;28;20090;-76
2021/06/07 06:42:31;;;;;;;24.88;19.83;;;;;;;16.84;100.00;96612.97;5015525;28;20547;-76
2021/06/07 06:44:57;;;;;;;26.08;22.95;;;;;;;16.89;100.00;96615.84;5006485;28;20037;-75
2021/06/07 06:47:23;;;;;;;22.65;18.98;;;;;;;16.88;100.00;96613.41;4997943;28;20038;-76
2021/06/07 06:49:48;;;;;;;21.33;19.00;;;;;;;16.79;100.00;96617.19;5006510;28;20028;-76
2021/06/07 06:52:14;;;;;;;21.02;18.83;;;;;;;16.81;100.00;96623.13;5006675;28;20128;-76
2021/06/07 06:54:40;;;;;;;22.70;19.30;;;;;;;16.72;100.00;96615.25;5006218;28;20036;-76
2021/06/07 06:57:06;;;;;;;22.90;20.50;;;;;;;16.67;100.00;96622.16;4995151;28;20030;-76
2021/06/07 06:59:31;;;;;;;21.20;18.45;;;;;;;16.79;100.00;96619.84;5001756;28;20026;-76
2021/06/07 07:01:58;;;;;;;22.33;19.95;;;;;;;16.76;100.00;96625.53;5013253;28;20133;-76
2021/06/07 07:04:23;;;;;;;22.15;19.05;;;;;;;16.57;100.00;96630.41;4987369;28;20033;-76
2021/06/07 07:06:49;;;;;;;21.08;18.38;;;;;;;16.64;100.00;96620.69;5011258;28;20116;-76
2021/06/07 07:09:15;;;;;;;21.92;19.63;;;;;;;16.69;100.00;96628.91;4994345;28;20085;-76
2021/06/07 07:11:40;;;;;;;21.33;19.00;;;;;;;16.65;100.00;96627.63;4990664;28;20451;-76
2021/06/07 07:14:06;;;;;;;23.25;20.23;;;;;;;16.75;100.00;96634.50;5010864;28;20050;-76
2021/06/07 07:16:32;;;;;;;20.70;18.05;;;;;;;16.71;100.00;96636.69;4995735;28;20084;-76
2021/06/07 07:18:57;;;;;;;21.30;18.75;;;;;;;16.75;100.00;96637.16;4997759;28;20022;-76
2021/06/07 07:21:23;;;;;;;20.45;18.25;;;;;;;16.58;100.00;96634.69;4991757;28;20029;-77
2021/06/07 07:23:49;;;;;;;20.88;18.67;;;;;;;16.55;100.00;96632.41;5009454;28;20030;-76
2021/06/07 07:26:15;;;;;;;22.38;19.85;;;;;;;16.83;100.00;96637.03;4984049;28;20030;-76
2021/06/07 07:28:41;;;;;;;22.02;19.50;;;;;;;16.78;100.00;96642.94;5006596;28;20049;-76
2021/06/07 07:31:08;;;;;;;22.08;19.30;;;;;;;17.02;100.00;96635.59;5014323;28;20029;-76
2021/06/07 07:33:38;;;;;;;22.08;18.88;;;;;;;17.25;100.00;96635.41;4992567;28;20029;-76
2021/06/07 07:36:07;;;;;;;25.60;21.38;;;;;;;17.05;99.74;96645.84;5001972;28;20059;-77
2021/06/07 07:38:33;;;;;;;25.08;22.38;;;;;;;16.86;99.38;96641.97;5006767;28;20022;-76
2021/06/07 07:40:59;;;;;;;27.33;23.40;;;;;;;17.19;100.00;96647.63;5020720;28;20026;-76
2021/06/07 07:43:24;;;;;;;25.85;21.67;;;;;;;17.10;99.02;96641.63;5029882;28;20471;-76
2021/06/07 07:45:50;;;;;;;25.98;22.17;;;;;;;17.15;100.00;96641.03;4995760;28;20114;-76
2021/06/07 07:48:16;;;;;;;24.42;21.27;;;;;;;17.25;98.75;96640.72;5005274;28;20364;-76
2021/06/07 07:50:41;;;;;;;25.95;22.35;;;;;;;17.37;98.43;96639.19;5011869;28;20030;-75
2021/06/07 07:53:07;;;;;;;23.95;21.45;;;;;;;17.54;96.51;96640.56;5017150;28;20661;-76
2021/06/07 07:55:35;;;;;;;24.88;22.27;;;;;;;17.66;97.76;96641.66;5016248;28;20044;-77
2021/06/07 07:58:04;;;;;;;23.15;20.73;;;;;;;17.61;97.08;96633.44;4994515;28;20105;-76
2021/06/07 08:00:30;;;;;;;25.65;23.02;;;;;;;17.83;97.95;96634.22;5024689;28;20038;-76
2021/06/07 08:02:59;;;;;;;24.75;22.10;;;;;;;18.20;94.82;96631.38;4995577;28;20026;-76
2021/06/07 08:05:26;;;;;;;28.45;22.10;;;;;;;18.09;93.86;96627.44;4997426;28;20034;-76
2021/06/07 08:07:52;;;;;;;21.58;19.27;;;;;;;17.81;94.50;96635.47;5024946;28;20025;-77
2021/06/07 08:10:17;;;;;;;21.88;18.67;;;;;;;18.12;95.29;96627.88;5017102;28;20076;-75
2021/06/07 08:12:45;;;;;;;23.65;19.35;;;;;;;18.07;95.62;96630.28;5016534;28;20021;-77
2021/06/07 08:15:11;;;;;;;20.77;18.33;;;;;;;17.88;94.79;96636.31;5018596;28;20073;-76
2021/06/07 08:17:37;;;;;;;20.73;17.10;;;;;;;18.12;95.08;96641.16;5023169;28;20028;-76
2021/06/07 08:20:05;;;;;;;15.98;13.75;;;;;;;17.47;96.72;96645.00;5026225;28;20030;-77
2021/06/07 08:22:31;;;;;;;19.70;17.60;;;;;;;17.56;100.00;96646.50;4997676;28;20494;-76
2021/06/07 08:24:57;;;;;;;18.63;15.88;;;;;;;17.93;98.50;96633.06;5012200;28;20132;-77
2021/06/07 08:27:23;;;;;;;14.02;12.52;;;;;;;18.01;97.15;96632.94;5019775;28;20117;-76
2021/06/07 08:29:49;;;;;;;13.45;11.55;;;;;;;18.11;95.52;96636.88;5019689;28;20021;-77
2021/06/07 08:32:16;;;;;;;14.48;12.98;;;;;;;18.40;97.80;96634.94;4996007;28;20088;-76
2021/06/07 08:34:42;;;;;;;16.20;13.90;;;;;;;18.80;98.22;96633.28;5002910;28;20033;-77
2021/06/07 08:37:07;;;;;;;15.93;14.07;;;;;;;19.21;94.73;96629.66;4999526;28;20498;-77
2021/06/07 08:39:33;;;;;;;14.20;12.63;;;;;;;19.24;93.37;96626.56;4999826;28;20502;-78
2021/06/07 08:42:00;;;;;;;11.90;10.57;;;;;;;19.33;92.88;96629.88;5001876;28;20104;-78
2021/06/07 08:44:27;;;;;;;11.23;9.75;;;;;;;18.77;94.32;96635.53;5013939;28;20574;-77
2021/06/07 08:46:53;;;;;;;10.63;9.52;;;;;;;19.04;92.14;96631.88;5002451;28;20053;-77
2021/06/07 08:49:19;;;;;;;11.82;9.77;;;;;;;19.06;93.31;96629.84;5027985;28;20041;-78
2021/06/07 08:51:45;;;;;;;11.63;9.55;;;;;;;19.41;92.66;96631.50;4983712;28;20033;-77
2021/06/07 08:54:11;;;;;;;11.82;10.55;;;;;;;19.49;89.87;96632.13;5000844;28;20057;-77
2021/06/07 08:56:37;;;;;;;13.30;10.60;;;;;;;19.60;91.38;96635.22;5020388;28;20459;-77
2021/06/07 08:59:03;;;;;;;12.98;10.82;;;;;;;19.42;90.43;96634.00;5015283;28;20034;-77
2021/06/07 09:01:28;;;;;;;14.63;12.35;;;;;;;18.68;88.44;96642.00;5022205;28;20076;-77
2021/06/07 09:03:54;;;;;;;15.38;13.35;;;;;;;18.82;91.42;96639.22;5027452;28;20034;-77
2021/06/07 09:06:25;;;;;;;13.57;11.35;;;;;;;19.24;90.86;96637.25;5020931;28;20088;-77
2021/06/07 09:09:03;;;;;;;15.20;12.77;;;;;;;19.46;88.24;96645.06;5017538;28;20395;-77
2021/06/07 09:11:31;;;;;;;14.63;12.40;;;;;;;19.63;87.46;96634.81;4998804;28;20034;-77
2021/06/07 09:13:56;;;;;;;14.70;12.98;;;;;;;19.31;89.01;96639.91;5023230;28;20553;-76
2021/06/07 09:16:22;;;;;;;15.25;13.00;;;;;;;19.50;88.97;96639.09;5015837;28;20040;-77
2021/06/07 09:18:50;;;;;;;15.93;12.90;;;;;;;19.29;88.59;96631.31;5019329;28;20014;-77
2021/06/07 09:21:19;;;;;;;15.20;13.50;;;;;;;19.07;91.06;96639.47;5015528;28;20073;-77
2021/06/07 09:23:47;;;;;;;17.63;13.35;;;;;;;18.94;91.05;96639.44;5004331;28;20405;-76
2021/06/07 09:26:36;;;;;;;17.23;14.20;;;;;;;19.14;90.75;96639.47;5020356;28;20065;-75
2021/06/07 09:29:14;;;;;;;18.65;14.05;;;;;;;19.06;91.51;96637.84;5016767;28;20404;-77
2021/06/07 09:31:45;;;;;;;16.35;13.30;;;;;;;18.83;93.02;96650.72;5005052;28;20037;-77
2021/06/07 09:34:22;;;;;;;16.00;13.60;;;;;;;18.64;93.92;96651.44;4984838;28;20038;-77
2021/06/07 09:36:48;;;;;;;16.00;14.27;;;;;;;18.22;95.20;96647.97;5027247;28;20059;-76
2021/06/07 09:39:23;;;;;;;16.67;14.73;;;;;;;18.03;94.67;96650.31;5016546;28;20499;-76
2021/06/07 09:42:01;;;;;;;17.42;15.43;;;;;;;18.14;95.86;96651.59;5021078;28;20064;-77
2021/06/07 09:44:45;;;;;;;16.60;14.80;;;;;;;18.23;94.15;96654.94;5019631;28;20034;-78
2021/06/07 09:47:21;;;;;;;20.48;18.23;;;;;;;18.19;95.24;96653.69;5008657;28;20101;-77
2021/06/07 09:50:03;;;;;;;16.02;14.30;;;;;;;18.18;96.00;96652.06;5005665;28;20061;-78
2021/06/07 09:52:44;;;;;;;16.55;14.75;;;;;;;18.30;96.39;96650.47;5018400;28;20125;-77
2021/06/07 09:55:17;;;;;;;16.63;14.82;;;;;;;18.25;96.83;96648.41;5019003;28;20746;-76
2021/06/07 09:57:46;;;;;;;16.50;14.00;;;;;;;18.70;94.48;96647.97;5021105;28;20038;-77
2021/06/07 10:00:30;;;;;;;20.75;17.58;;;;;;;18.55;94.22;96643.63;5021029;28;20022;-77
2021/06/07 10:02:56;;;;;;;21.80;19.38;;;;;;;18.25;93.43;96651.06;5014176;28;20037;-77
2021/06/07 10:05:32;;;;;;;19.83;17.77;;;;;;;18.29;93.57;96646.16;5001528;28;20025;-77
2021/06/07 10:07:58;;;;;;;17.88;14.98;;;;;;;18.34;94.32;96646.38;4995639;28;20057;-77
2021/06/07 10:10:24;;;;;;;16.17;14.30;;;;;;;18.49;94.37;96641.75;5014935;28;20443;-76
2021/06/07 10:12:50;;;;;;;16.63;14.70;;;;;;;18.82;92.57;96641.06;5000694;28;20104;-77
2021/06/07 10:15:36;;;;;;;16.08;14.38;;;;;;;18.90;91.79;96643.53;5024641;28;20038;-76
2021/06/07 10:18:04;;;;;;;17.33;14.88;;;;;;;19.37;91.68;96639.09;5019358;28;20037;-77
2021/06/07 10:22:59;;;;;;;14.90;13.02;;;;;;;19.99;86.01;96632.53;5021672;28;20072;-77
2021/06/07 10:25:25;;;;;;;15.65;13.98;;;;;;;20.32;84.81;96633.44;5004320;28;20080;-80
2021/06/07 10:27:52;;;;;;;15.93;13.63;;;;;;;20.88;81.87;96635.50;5002298;28;20047;-77
2021/06/07 10:30:23;;;;;;;16.13;14.43;;;;;;;21.36;82.33;96641.19;4992911;28;20029;-77
2021/06/07 10:32:51;;;;;;;15.38;13.77;;;;;;;21.24;78.77;96639.41;5019181;28;20033;-77
2021/06/07 10:35:33;;;;;;;15.60;13.98;;;;;;;21.48;78.09;96638.63;5016932;28;20021;-77
2021/06/07 10:38:08;;;;;;;15.23;13.65;;;;;;;21.83;77.71;96632.75;5019722;28;20034;-77
2021/06/07 10:40:44;;;;;;;15.32;13.73;;;;;;;22.34;76.12;96635.13;5016391;28;20033;-76
2021/06/07 10:43:11;;;;;;;15.50;13.88;;;;;;;22.62;75.10;96636.44;5019613;28;20041;-76
2021/06/07 10:45:42;;;;;;;13.40;12.00;;;;;;;22.49;72.07;96633.94;5020355;28;20108;-77
2021/06/07 10:48:10;;;;;;;16.08;14.27;;;;;;;21.80;74.63;96636.69;5004146;28;20403;-77
2021/06/07 10:50:45;;;;;;;13.88;12.40;;;;;;;21.38;75.81;96639.09;5012581;28;20103;-77
2021/06/07 10:53:25;;;;;;;15.55;13.95;;;;;;;21.00;78.97;96641.00;5000814;28;20041;-77
2021/06/07 10:56:06;;;;;;;20.15;16.02;;;;;;;20.90;81.09;96642.28;4991880;28;20056;-77
2021/06/07 10:58:32;;;;;;;14.18;12.50;;;;;;;20.65;84.19;96636.84;5011134;28;20037;-77
2021/06/07 11:01:01;;;;;;;16.00;13.65;;;;;;;20.73;83.44;96640.31;4998328;28;20053;-77
2021/06/07 11:03:30;;;;;;;15.88;14.27;;;;;;;20.75;82.12;96638.22;5009603;28;20041;-77
2021/06/07 11:06:03;;;;;;;15.32;13.45;;;;;;;20.70;81.42;96641.56;5006518;28;20041;-77
2021/06/07 11:08:29;;;;;;;;;;;;;;;20.75;81.32;96639.06;4990951;28;20026;-77
2021/06/07 11:11:05;;;;;;;15.88;13.48;;;;;;;21.21;80.24;96621.91;4980182;28;19913;-77
2021/06/07 11:13:46;;;;;;;17.70;14.40;;;;;;;21.72;78.83;96631.63;4996979;28;20038;-77
2021/06/07 11:16:28;;;;;;;16.05;14.30;;;;;;;21.64;78.07;96627.38;5010658;28;20037;-77